Time;durP1;ratioP1;P1;durP2;ratioP2;P2;SDS_P1;SDS_P2;PMS_P1;PMS_P2;Temp;Humidity;BMP_temperature;BMP_pressure;BME280_temperature;BME280_humidity;BME280_pressure;Samples;Min_cycle;Max_cycle;Signal;HPM_P1;HPM_P2
2023/09/17 00:01:04;;;;;;;;;;;;;;;-140.72;100.00;52512.59;5075195;28;19917;-70
2023/09/17 00:03:29;;;;;;;;;;;;;;;-140.72;100.00;52577.53;5066750;28;19925;-70
2023/09/17 00:06:04;;;;;;;;;;;;;;;-140.72;100.00;52512.59;5072701;28;19916;-70
2023/09/17 00:08:30;;;;;;;;;;;;;;;-140.72;100.00;52506.53;5071894;28;20020;-70
2023/09/17 00:10:58;;;;;;;;;;;;;;;-140.72;100.00;52508.56;5073100;28;19952;-70
2023/09/17 00:13:23;;;;;;;;;;;;;;;-140.72;100.00;52516.66;5070791;28;19960;-70
2023/09/17 00:15:49;;;;;;;;;;;;;;;-140.72;100.00;52528.84;5074583;28;19928;-70
2023/09/17 00:18:15;;;;;;;;;;;;;;;-140.72;100.00;52522.75;5073004;28;19921;-70
2023/09/17 00:20:40;;;;;;;;;;;;;;;-140.72;100.00;52573.50;5063546;28;19932;-69
2023/09/17 00:23:05;;;;;;;;;;;;;;;-140.72;100.00;52520.72;5076961;28;19920;-70
2023/09/17 00:25:31;;;;;;;;;;;;;;;-140.72;100.00;52512.59;5069265;28;19917;-69
2023/09/17 00:27:58;;;;;;;;;;;;;;;-140.72;100.00;52555.22;5061055;28;19937;-70
2023/09/17 00:30:24;;;;;;;;;;;;;;;-140.72;100.00;52553.19;5066152;28;19956;-70
2023/09/17 00:32:49;;;;;;;;;;;;;;;-140.72;100.00;52524.78;5060024;28;20404;-70
2023/09/17 00:35:14;;;;;;;;;;;;;;;-140.72;100.00;52528.84;5077652;28;19956;-70
2023/09/17 00:37:40;;;;;;;;;;;;;;;-140.72;100.00;52536.97;5081204;28;20366;-69
2023/09/17 00:40:06;;;;;;;;;;;;;;;-140.72;100.00;52539.00;5073397;28;19926;-70
2023/09/17 00:42:31;;;;;;;;;;;;;;;-140.72;100.00;52547.09;5059778;28;19998;-70
2023/09/17 00:44:56;;;;;;;;;;;;;;;-140.72;100.00;52524.78;5073323;28;20320;-70
2023/09/17 00:47:22;;;;;;;;;;;;;;;-140.72;100.00;52516.66;5064288;28;20424;-70
2023/09/17 00:49:47;;;;;;;;;;;;;;;-140.72;100.00;52551.16;5073465;28;20019;-70
2023/09/17 00:52:19;;;;;;;;;;;;;;;-140.72;100.00;52541.03;5057185;28;19920;-70
2023/09/17 00:54:47;;;;;;;;;;;;;;;-140.72;100.00;52551.16;5058930;28;20336;-70
2023/09/17 00:57:15;;;;;;;;;;;;;;;-140.72;100.00;52573.50;5058535;28;19921;-70
2023/09/17 00:59:40;;;;;;;;;;;;;;;-140.72;100.00;52510.59;5070638;28;19924;-70
2023/09/17 01:02:05;;;;;;;;;;;;;;;-140.72;100.00;52561.31;5079220;28;20011;-69
2023/09/17 01:04:41;;;;;;;;;;;;;;;-140.72;100.00;52545.06;5067622;28;19920;-70
2023/09/17 01:07:07;;;;;;;;;;;;;;;-140.72;100.00;52528.84;5065067;28;20383;-70
2023/09/17 01:09:33;;;;;;;;;;;;;;;-140.72;100.00;52528.84;5073275;28;19917;-70
2023/09/17 01:11:59;;;;;;;;;;;;;;;-140.72;100.00;52539.00;5073293;28;19917;-70
2023/09/17 01:14:24;;;;;;;;;;;;;;;-140.72;100.00;52543.03;5068386;28;19974;-70
2023/09/17 01:16:49;;;;;;;;;;;;;;;-140.72;100.00;52530.88;5059540;28;19921;-70
2023/09/17 01:19:26;;;;;;;;;;;;;;;-140.72;100.00;52514.63;5072728;28;19920;-70
2023/09/17 01:21:58;;;;;;;;;;;;;;;-140.72;100.00;52516.66;5068915;28;20283;-69
2023/09/17 01:24:43;;;;;;;;;;;;;;;-140.72;100.00;52522.75;5067298;28;19964;-69
2023/09/17 01:27:09;;;;;;;;;;;;;;;-140.72;100.00;52506.53;5056962;28;19964;-69
2023/09/17 01:29:37;;;;;;;;;;;;;;;-140.72;100.00;52504.50;5076188;28;19921;-69
2023/09/17 01:32:03;;;;;;;;;;;;;;;-140.72;100.00;52559.28;5053528;28;20007;-69
2023/09/17 01:34:29;;;;;;;;;;;;;;;-140.72;100.00;52553.19;5069378;28;20286;-69
2023/09/17 01:36:57;;;;;;;;;;;;;;;-140.72;100.00;52508.56;5053803;28;19940;-69
2023/09/17 01:39:24;;;;;;;;;;;;;;;-140.72;100.00;52551.16;5061433;28;20255;-69
2023/09/17 01:41:49;;;;;;;;;;;;;;;-140.72;100.00;52551.16;5060821;28;19921;-69
2023/09/17 01:44:15;;;;;;;;;;;;;;;-140.72;100.00;52545.06;5069819;28;20418;-69
2023/09/17 01:46:41;;;;;;;;;;;;;;;-140.72;100.00;52492.31;5062199;28;19917;-69
2023/09/17 01:49:09;;;;;;;;;;;;;;;-140.72;100.00;52553.19;5060564;28;20039;-69
2023/09/17 01:51:35;;;;;;;;;;;;;;;-140.72;100.00;52530.88;5075643;28;20007;-69
2023/09/17 01:54:01;;;;;;;;;;;;;;;-140.72;100.00;52504.50;5072905;28;20002;-69
2023/09/17 01:56:26;;;;;;;;;;;;;;;-140.72;100.00;52563.34;5055634;28;19970;-69
2023/09/17 01:58:51;;;;;;;;;;;;;;;-140.72;100.00;52536.97;5073769;28;20441;-69
2023/09/17 02:01:19;;;;;;;;;;;;;;;-140.72;100.00;52536.97;5072048;28;20333;-69
2023/09/17 02:03:44;;;;;;;;;;;;;;;-140.72;100.00;52549.13;5071109;28;19924;-69
2023/09/17 02:06:09;;;;;;;;;;;;;;;-140.72;100.00;52571.47;5075126;28;19924;-69
2023/09/17 02:08:36;;;;;;;;;;;;;;;-140.72;100.00;52563.34;5065920;28;19920;-69
2023/09/17 02:11:04;;;;;;;;;;;;;;;-140.72;100.00;52532.91;5072126;28;20019;-69
2023/09/17 02:13:29;;;;;;;;;;;;;;;-140.72;100.00;52528.84;5064940;28;20421;-69
2023/09/17 02:15:55;;;;;;;;;;;;;;;-140.72;100.00;52549.13;5074298;28;19921;-69
2023/09/17 02:18:21;;;;;;;;;;;;;;;-140.72;100.00;52532.91;5074947;28;20070;-69
2023/09/17 02:20:46;;;;;;;;;;;;;;;-140.72;100.00;52536.97;5079170;28;20015;-68
2023/09/17 02:23:11;;;;;;;;;;;;;;;-140.72;100.00;52549.13;5076279;28;20730;-69
2023/09/17 02:25:37;;;;;;;;;;;;;;;-140.72;100.00;52530.88;5063261;28;19921;-69
2023/09/17 02:28:02;;;;;;;;;;;;;;;-140.72;100.00;52553.19;5075598;28;19916;-69
2023/09/17 02:30:28;;;;;;;;;;;;;;;-140.72;100.00;52551.16;5075801;28;19956;-69
2023/09/17 02:32:53;;;;;;;;;;;;;;;-140.72;100.00;52520.72;5076269;28;19920;-69
2023/09/17 02:35:18;;;;;;;;;;;;;;;-140.72;100.00;52549.13;5071069;28;19921;-69
2023/09/17 02:37:44;;;;;;;;;;;;;;;-140.72;100.00;52508.56;5073677;28;19917;-69
2023/09/17 02:40:09;;;;;;;;;;;;;;;-140.72;100.00;52528.84;5066399;28;19932;-69
2023/09/17 02:42:37;;;;;;;;;;;;;;;-140.72;100.00;52532.91;5076320;28;19955;-69
2023/09/17 02:45:03;;;;;;;;;;;;;;;-140.72;100.00;52478.13;5069354;28;19944;-69
2023/09/17 02:47:28;;;;;;;;;;;;;;;-140.72;100.00;52561.31;5072491;28;20370;-69
2023/09/17 02:49:53;;;;;;;;;;;;;;;-140.72;100.00;52516.66;5074888;28;20378;-69
2023/09/17 02:52:19;;;;;;;;;;;;;;;-140.72;100.00;52532.91;5059561;28;20275;-69
2023/09/17 02:54:44;;;;;;;;;;;;;;;-140.72;100.00;52508.56;5077498;28;20295;-69
2023/09/17 02:57:15;;;;;;;;;;;;;;;-140.72;100.00;52569.44;5067136;28;19924;-70
2023/09/17 02:59:41;;;;;;;;;;;;;;;-140.72;100.00;52534.94;5070942;28;19916;-70
2023/09/17 03:02:06;;;;;;;;;;;;;;;-140.72;100.00;52585.66;5059992;28;19940;-69
2023/09/17 03:04:31;;;;;;;;;;;;;;;-140.72;100.00;52549.13;5056652;28;19920;-69
2023/09/17 03:07:18;;;;;;;;;;;;;;;-140.72;100.00;52587.69;5069444;28;20012;-69
2023/09/17 03:09:44;;;;;;;;;;;;;;;-140.72;100.00;52522.75;5067562;28;20019;-70
2023/09/17 03:12:10;;;;;;;;;;;;;;;-140.72;100.00;52573.50;5074923;28;20023;-70
2023/09/17 03:14:36;;;;;;;;;;;;;;;-140.72;100.00;52557.25;5062317;28;19920;-69
2023/09/17 03:17:03;;;;;;;;;;;;;;;-140.72;100.00;52559.28;5066433;28;19921;-69
2023/09/17 03:19:28;;;;;;;;;;;;;;;-140.72;100.00;52553.19;5080846;28;19995;-69
2023/09/17 03:21:53;;;;;;;;;;;;;;;-140.72;100.00;52557.25;5070211;28;20449;-69
2023/09/17 03:24:19;;;;;;;;;;;;;;;-140.72;100.00;52528.84;5074717;28;20013;-69
2023/09/17 03:26:44;;;;;;;;;;;;;;;-140.72;100.00;52536.97;5065265;28;19921;-70
2023/09/17 03:29:10;;;;;;;;;;;;;;;-140.72;100.00;52526.81;5070417;28;19960;-69
2023/09/17 03:31:36;;;;;;;;;;;;;;;-140.72;100.00;52522.75;5067102;28;19921;-70
2023/09/17 03:34:03;;;;;;;;;;;;;;;-140.72;100.00;52573.50;5074610;28;19991;-70
2023/09/17 03:36:28;;;;;;;;;;;;;;;-140.72;100.00;52526.81;5062755;28;19921;-70
2023/09/17 03:38:53;;;;;;;;;;;;;;;-140.72;100.00;52575.50;5073406;28;20019;-70
2023/09/17 03:41:18;;;;;;;;;;;;;;;-140.72;100.00;52547.09;5074268;28;19955;-70
2023/09/17 03:43:44;;;;;;;;;;;;;;;-140.72;100.00;52553.19;5070001;28;19916;-70
2023/09/17 03:46:10;;;;;;;;;;;;;;;-140.72;100.00;52545.06;5056937;28;19990;-70
2023/09/17 03:48:35;;;;;;;;;;;;;;;-140.72;100.00;52530.88;5069716;28;19978;-70
2023/09/17 03:51:01;;;;;;;;;;;;;;;-140.72;100.00;52559.28;5060625;28;19920;-70
2023/09/17 03:53:27;;;;;;;;;;;;;;;-140.72;100.00;52565.38;5067238;28;19921;-71
2023/09/17 03:55:52;;;;;;;;;;;;;;;-140.72;100.00;52510.59;5073374;28;19920;-69
2023/09/17 03:58:18;;;;;;;;;;;;;;;-140.72;100.00;52524.78;5066930;28;19966;-70
2023/09/17 04:00:44;;;;;;;;;;;;;;;-140.72;100.00;52557.25;5078313;28;19920;-70
2023/09/17 04:03:09;;;;;;;;;;;;;;;-140.72;100.00;52516.66;5074061;28;19917;-70
2023/09/17 04:05:34;;;;;;;;;;;;;;;-140.72;100.00;52553.19;5064897;28;19963;-70
2023/09/17 04:08:00;;;;;;;;;;;;;;;-140.72;100.00;52528.84;5072219;28;20306;-70
2023/09/17 04:10:26;;;;;;;;;;;;;;;-140.72;100.00;52557.25;5067909;28;19921;-70
2023/09/17 04:12:51;;;;;;;;;;;;;;;-140.72;100.00;52532.91;5074574;28;19920;-70
2023/09/17 04:15:19;;;;;;;;;;;;;;;-140.72;100.00;52536.97;5078747;28;20409;-69
2023/09/17 04:17:44;;;;;;;;;;;;;;;-140.72;100.00;52557.25;5073816;28;20012;-69
2023/09/17 04:20:13;;;;;;;;;;;;;;;-140.72;100.00;52569.44;5071804;28;20014;-69
2023/09/17 04:22:39;;;;;;;;;;;;;;;-140.72;100.00;52573.50;5069869;28;19921;-70
2023/09/17 04:25:09;;;;;;;;;;;;;;;-140.72;100.00;52557.25;5067462;28;20263;-70
2023/09/17 04:27:34;;;;;;;;;;;;;;;-140.72;100.00;52557.25;5070451;28;19920;-71
2023/09/17 04:30:00;;;;;;;;;;;;;;;-140.72;100.00;52530.88;5074824;28;19927;-70
2023/09/17 04:32:25;;;;;;;;;;;;;;;-140.72;100.00;52541.03;5069779;28;19959;-70
2023/09/17 04:34:51;;;;;;;;;;;;;;;-140.72;100.00;52557.25;5073893;28;20294;-70
2023/09/17 04:37:19;;;;;;;;;;;;;;;-140.72;100.00;52565.38;5062522;28;19944;-70
2023/09/17 04:39:45;;;;;;;;;;;;;;;-140.72;100.00;52551.16;5071684;28;19916;-70
2023/09/17 04:42:10;;;;;;;;;;;;;;;-140.72;100.00;52549.13;5071155;28;19920;-70
2023/09/17 04:44:35;;;;;;;;;;;;;;;-140.72;100.00;52559.28;5083559;28;19916;-70
2023/09/17 04:47:08;;;;;;;;;;;;;;;-140.72;100.00;52571.47;5062014;28;19928;-70
2023/09/17 04:49:34;;;;;;;;;;;;;;;-140.72;100.00;52551.16;5063457;28;19953;-70
2023/09/17 04:51:59;;;;;;;;;;;;;;;-140.72;100.00;52567.41;5066195;28;19920;-69
2023/09/17 04:54:24;;;;;;;;;;;;;;;-140.72;100.00;52559.28;5063604;28;19932;-70
2023/09/17 04:56:49;;;;;;;;;;;;;;;-140.72;100.00;52573.50;5059787;28;19931;-70
2023/09/17 04:59:15;;;;;;;;;;;;;;;-140.72;100.00;52569.44;5069183;28;20000;-70
2023/09/17 05:01:41;;;;;;;;;;;;;;;-140.72;100.00;52569.44;5058035;28;19921;-70
2023/09/17 05:04:06;;;;;;;;;;;;;;;-140.72;100.00;52593.78;5070501;28;19962;-70
2023/09/17 05:06:31;;;;;;;;;;;;;;;-140.72;100.00;52573.50;5067458;28;19928;-70
2023/09/17 05:08:57;;;;;;;;;;;;;;;-140.72;100.00;52555.22;5071944;28;19927;-70
2023/09/17 05:11:22;;;;;;;;;;;;;;;-140.72;100.00;52561.31;5061831;28;19926;-70
2023/09/17 05:13:47;;;;;;;;;;;;;;;-140.72;100.00;52549.13;5072478;28;19962;-70
2023/09/17 05:16:13;;;;;;;;;;;;;;;-140.72;100.00;52534.94;5069896;28;19924;-70
2023/09/17 05:18:39;;;;;;;;;;;;;;;-140.72;100.00;52585.66;5058634;28;19940;-70
2023/09/17 05:21:04;;;;;;;;;;;;;;;-140.72;100.00;52557.25;5069741;28;19917;-70
2023/09/17 05:23:29;;;;;;;;;;;;;;;-140.72;100.00;52545.06;5070910;28;19969;-70
2023/09/17 05:25:55;;;;;;;;;;;;;;;-140.72;100.00;52593.78;5068992;28;20391;-70
2023/09/17 05:28:21;;;;;;;;;;;;;;;-140.72;100.00;52557.25;5070724;28;19920;-70
2023/09/17 05:30:46;;;;;;;;;;;;;;;-140.72;100.00;52524.78;5074548;28;19917;-70
2023/09/17 05:33:11;;;;;;;;;;;;;;;-140.72;100.00;52559.28;5082171;28;19921;-70
2023/09/17 05:35:36;;;;;;;;;;;;;;;-140.72;100.00;52569.44;5069585;28;19940;-70
2023/09/17 05:38:02;;;;;;;;;;;;;;;-140.72;100.00;52557.25;5068992;28;20436;-70
2023/09/17 05:40:27;;;;;;;;;;;;;;;-140.72;100.00;52577.53;5059313;28;19917;-70
2023/09/17 05:42:53;;;;;;;;;;;;;;;-140.72;100.00;52567.41;5072143;28;20389;-70
2023/09/17 05:45:18;;;;;;;;;;;;;;;-140.72;100.00;52573.50;5076515;28;20290;-70
2023/09/17 05:47:43;;;;;;;;;;;;;;;-140.72;100.00;52522.75;5065611;28;19920;-70
2023/09/17 05:50:09;;;;;;;;;;;;;;;-140.72;100.00;52565.38;5075975;28;20371;-70
2023/09/17 05:52:35;;;;;;;;;;;;;;;-140.72;100.00;52577.53;5062141;28;19927;-70
2023/09/17 05:55:03;;;;;;;;;;;;;;;-140.72;100.00;52563.34;5064190;28;19917;-70
2023/09/17 05:57:28;;;;;;;;;;;;;;;-140.72;100.00;52551.16;5073842;28;19927;-70
2023/09/17 05:59:54;;;;;;;;;;;;;;;-140.72;100.00;52603.94;5071039;28;19917;-70
2023/09/17 06:02:19;;;;;;;;;;;;;;;-140.72;100.00;52565.38;5059544;28;19927;-70
2023/09/17 06:04:47;;;;;;;;;;;;;;;-140.72;100.00;52581.59;5062762;28;19917;-70
2023/09/17 06:07:14;;;;;;;;;;;;;;;-140.72;100.00;52597.84;5083801;28;20437;-71
2023/09/17 06:09:39;;;;;;;;;;;;;;;-140.72;100.00;52585.66;5072611;28;19996;-70
2023/09/17 06:12:05;;;;;;;;;;;;;;;-140.72;100.00;52561.31;5082050;28;19979;-70
2023/09/17 06:14:30;;;;;;;;;;;;;;;-140.72;100.00;52569.44;5068089;28;19920;-70
2023/09/17 06:16:55;;;;;;;;;;;;;;;-140.72;100.00;52569.44;5067168;28;19952;-71
2023/09/17 06:19:21;;;;;;;;;;;;;;;-140.72;100.00;52573.50;5065651;28;19921;-71
2023/09/17 06:21:46;;;;;;;;;;;;;;;-140.72;100.00;52565.38;5067590;28;20390;-70
2023/09/17 06:24:11;;;;;;;;;;;;;;;-140.72;100.00;52553.19;5064002;28;20003;-70
2023/09/17 06:26:36;;;;;;;;;;;;;;;-140.72;100.00;52553.19;5063454;28;19917;-70
2023/09/17 06:29:02;;;;;;;;;;;;;;;-140.72;100.00;52595.81;5075130;28;19916;-70
2023/09/17 06:31:27;;;;;;;;;;;;;;;-140.72;100.00;52601.91;5078502;28;19919;-70
2023/09/17 06:33:53;;;;;;;;;;;;;;;-140.72;100.00;52522.75;5065359;28;19924;-70
2023/09/17 06:36:19;;;;;;;;;;;;;;;-140.72;100.00;52534.94;5056212;28;19931;-70
2023/09/17 06:38:45;;;;;;;;;;;;;;;-140.72;100.00;52589.72;5068807;28;19921;-70
2023/09/17 06:41:11;;;;;;;;;;;;;;;-140.72;100.00;52587.69;5067173;28;19921;-70
2023/09/17 06:43:36;;;;;;;;;;;;;;;-140.72;100.00;52614.06;5072548;28;20383;-70
2023/09/17 06:46:01;;;;;;;;;;;;;;;-140.72;100.00;52573.50;5076246;28;19939;-70
2023/09/17 06:48:27;;;;;;;;;;;;;;;-140.72;100.00;52587.69;5075526;28;19927;-70
2023/09/17 06:50:52;;;;;;;;;;;;;;;-140.72;100.00;52581.59;5083280;28;20362;-70
2023/09/17 06:53:17;;;;;;;;;;;;;;;-140.72;100.00;52571.47;5075206;28;19920;-70
2023/09/17 06:55:43;;;;;;;;;;;;;;;-140.72;100.00;52605.94;5075963;28;19964;-71
2023/09/17 06:58:12;;;;;;;;;;;;;;;-140.72;100.00;52581.59;5073821;28;20463;-70
2023/09/17 07:00:37;;;;;;;;;;;;;;;-140.72;100.00;52603.94;5074192;28;20302;-71
2023/09/17 07:03:02;;;;;;;;;;;;;;;-140.72;100.00;52571.47;5066632;28;19920;-71
2023/09/17 07:05:27;;;;;;;;;;;;;;;-140.72;100.00;52583.63;5062252;28;20011;-70
2023/09/17 07:07:53;;;;;;;;;;;;;;;-140.72;100.00;52569.44;5065341;28;20371;-70
2023/09/17 07:10:18;;;;;;;;;;;;;;;-140.72;100.00;52607.97;5059706;28;20390;-70
2023/09/17 07:12:44;;;;;;;;;;;;;;;-140.72;100.00;52605.94;5067840;28;19916;-70
2023/09/17 07:15:10;;;;;;;;;;;;;;;-140.72;100.00;52565.38;5074321;28;20235;-70
2023/09/17 07:17:36;;;;;;;;;;;;;;;-140.72;100.00;52616.09;5057125;28;19921;-70
2023/09/17 07:20:01;;;;;;;;;;;;;;;-140.72;100.00;52585.66;5071865;28;20049;-71
2023/09/17 07:22:26;;;;;;;;;;;;;;;-140.72;100.00;52610.00;5061629;28;19923;-70
2023/09/17 07:24:56;;;;;;;;;;;;;;;-140.72;100.00;52591.75;5069406;28;19921;-71
2023/09/17 07:27:21;;;;;;;;;;;;;;;-140.72;100.00;52626.25;5084740;28;19917;-70
2023/09/17 07:29:48;;;;;;;;;;;;;;;-140.72;100.00;52634.38;5073963;28;20275;-70
2023/09/17 07:32:13;;;;;;;;;;;;;;;-140.72;100.00;52638.41;5074796;28;19921;-70
2023/09/17 07:34:39;;;;;;;;;;;;;;;-140.72;100.00;52601.91;5061656;28;19982;-71
2023/09/17 07:37:05;;;;;;;;;;;;;;;-140.72;100.00;52589.72;5074100;28;19923;-71
2023/09/17 07:39:30;;;;;;;;;;;;;;;-140.72;100.00;52589.72;5062042;28;19920;-71
2023/09/17 07:41:56;;;;;;;;;;;;;;;-140.72;100.00;52612.03;5071676;28;20287;-71
2023/09/17 07:44:21;;;;;;;;;;;;;;;-140.72;100.00;52614.06;5065708;28;20393;-71
2023/09/17 07:46:47;;;;;;;;;;;;;;;-140.72;100.00;52595.81;5064807;28;19943;-71
2023/09/17 07:49:12;;;;;;;;;;;;;;;-140.72;100.00;52597.84;5072422;28;19920;-70
2023/09/17 07:51:37;;;;;;;;;;;;;;;-140.72;100.00;52622.19;5077120;28;19921;-71
2023/09/17 07:54:02;;;;;;;;;;;;;;;-140.72;100.00;52569.44;5070798;28;19981;-70
2023/09/17 07:56:28;;;;;;;;;;;;;;;-140.72;100.00;52583.63;5075275;28;19928;-70
2023/09/17 07:58:53;;;;;;;;;;;;;;;-140.72;100.00;52573.50;5073163;28;19927;-70
2023/09/17 08:01:18;;;;;;;;;;;;;;;-140.72;100.00;52595.81;5074973;28;19921;-70
2023/09/17 08:03:43;;;;;;;;;;;;;;;-140.72;100.00;52626.25;5070887;28;19916;-70
2023/09/17 08:06:11;;;;;;;;;;;;;;;-140.72;100.00;52587.69;5085808;28;19930;-70
2023/09/17 08:08:36;;;;;;;;;;;;;;;-140.72;100.00;52603.94;5075816;28;19916;-70
2023/09/17 08:11:03;;;;;;;;;;;;;;;-140.72;100.00;52612.03;5069054;28;20004;-70
2023/09/17 08:13:28;;;;;;;;;;;;;;;-140.72;100.00;52585.66;5083351;28;19917;-70
2023/09/17 08:15:53;;;;;;;;;;;;;;;-140.72;100.00;52595.81;5064161;28;19970;-70
2023/09/17 08:18:18;;;;;;;;;;;;;;;-140.72;100.00;52626.25;5068194;28;19925;-72
2023/09/17 08:20:44;;;;;;;;;;;;;;;-140.72;100.00;52585.66;5065465;28;20293;-70
2023/09/17 08:23:09;;;;;;;;;;;;;;;-140.72;100.00;52589.72;5068895;28;20313;-70
2023/09/17 08:25:34;;;;;;;;;;;;;;;-140.72;100.00;52591.75;5067718;28;20341;-70
2023/09/17 08:28:00;;;;;;;;;;;;;;;-140.72;100.00;52591.75;5069796;28;20343;-70
2023/09/17 08:30:25;;;;;;;;;;;;;;;-140.72;100.00;52557.25;5067048;28;19982;-70
2023/09/17 08:32:50;;;;;;;;;;;;;;;-140.72;100.00;52610.00;5058338;28;20477;-70
2023/09/17 08:35:15;;;;;;;;;;;;;;;-140.72;100.00;52636.38;5061715;28;20295;-70
2023/09/17 08:37:42;;;;;;;;;;;;;;;-140.72;100.00;52626.25;5059466;28;20371;-70
2023/09/17 08:40:10;;;;;;;;;;;;;;;-140.72;100.00;52601.91;5061485;28;19916;-70
2023/09/17 08:42:37;;;;;;;;;;;;;;;-140.72;100.00;52593.78;5060073;28;19920;-70
2023/09/17 08:45:03;;;;;;;;;;;;;;;-140.72;100.00;52589.72;5059249;28;19916;-70
2023/09/17 08:47:28;;;;;;;;;;;;;;;-140.72;100.00;52585.66;5074620;28;20015;-70
2023/09/17 08:49:54;;;;;;;;;;;;;;;-140.72;100.00;52577.53;5071325;28;20011;-70
2023/09/17 08:52:20;;;;;;;;;;;;;;;-140.72;100.00;52575.50;5064042;28;19975;-70
2023/09/17 08:54:46;;;;;;;;;;;;;;;-140.72;100.00;52565.38;5060844;28;20011;-70
2023/09/17 08:57:14;;;;;;;;;;;;;;;-140.72;100.00;52583.63;5062877;28;20027;-71
2023/09/17 08:59:41;;;;;;;;;;;;;;;-140.72;100.00;52563.34;5062838;28;19978;-71
2023/09/17 09:02:13;;;;;;;;;;;;;;;-140.72;100.00;52553.19;5057473;28;19955;-71
2023/09/17 09:04:39;;;;;;;;;;;;;;;-140.72;100.00;52581.59;5063026;28;20383;-71
2023/09/17 09:07:05;;;;;;;;;;;;;;;-140.72;100.00;52569.44;5070576;28;19920;-71
2023/09/17 09:09:31;;;;;;;;;;;;;;;-140.72;100.00;52557.25;5063673;28;19975;-71
2023/09/17 09:11:57;;;;;;;;;;;;;;;-140.72;100.00;52545.06;5060828;28;20378;-71
2023/09/17 09:14:22;;;;;;;;;;;;;;;-140.72;100.00;52569.44;5074596;28;19999;-71
2023/09/17 09:16:47;;;;;;;;;;;;;;;-140.72;100.00;52561.31;5073007;28;20340;-71
2023/09/17 09:19:13;;;;;;;;;;;;;;;-140.72;100.00;52577.53;5070029;28;20007;-71
2023/09/17 09:21:38;;;;;;;;;;;;;;;-140.72;100.00;52585.66;5072897;28;20398;-71
2023/09/17 09:24:05;;;;;;;;;;;;;;;-140.72;100.00;52553.19;5079282;28;19921;-71
2023/09/17 09:26:33;;;;;;;;;;;;;;;-140.72;100.00;52551.16;5072914;28;19956;-71
2023/09/17 09:28:59;;;;;;;;;;;;;;;-140.72;100.00;52555.22;5073249;28;19970;-74
2023/09/17 09:31:24;;;;;;;;;;;;;;;-140.72;100.00;52557.25;5071113;28;19928;-71
2023/09/17 09:33:50;;;;;;;;;;;;;;;-140.72;100.00;52532.91;5067315;28;19924;-71
2023/09/17 09:36:15;;;;;;;;;;;;;;;-140.72;100.00;52569.44;5069718;28;19927;-71
2023/09/17 09:38:40;;;;;;;;;;;;;;;-140.72;100.00;52528.84;5073530;28;19916;-71
2023/09/17 09:41:05;;;;;;;;;;;;;;;-140.72;100.00;52536.97;5068564;28;19920;-71
2023/09/17 09:43:31;;;;;;;;;;;;;;;-140.72;100.00;52518.69;5072125;28;20371;-71
2023/09/17 09:46:01;;;;;;;;;;;;;;;-140.72;100.00;52516.66;5071242;28;19920;-71
2023/09/17 09:48:28;;;;;;;;;;;;;;;-140.72;100.00;52508.56;5057543;28;19978;-71
2023/09/17 09:50:53;;;;;;;;;;;;;;;-140.72;100.00;52512.59;5061686;28;19928;-71
2023/09/17 09:53:18;;;;;;;;;;;;;;;-140.72;100.00;52514.63;5073634;28;20303;-71
2023/09/17 09:55:44;;;;;;;;;;;;;;;-140.72;100.00;52496.38;5072560;28;19948;-71
2023/09/17 09:58:10;;;;;;;;;;;;;;;-140.72;100.00;52492.31;5055611;28;19994;-71
2023/09/17 10:00:35;;;;;;;;;;;;;;;-140.72;100.00;52534.94;5070481;28;19927;-71
2023/09/17 10:03:01;;;;;;;;;;;;;;;-140.72;100.00;52534.94;5061615;28;19917;-71
2023/09/17 10:05:37;;;;;;;;;;;;;;;-140.72;100.00;52494.34;5072908;28;19920;-71
2023/09/17 10:08:06;;;;;;;;;;;;;;;-140.72;100.00;52520.72;5072725;28;19970;-71
2023/09/17 10:10:32;;;;;;;;;;;;;;;-140.72;100.00;52504.50;5068130;28;19928;-71
2023/09/17 10:12:59;;;;;;;;;;;;;;;-140.72;100.00;52494.34;5079935;28;20340;-71
2023/09/17 10:15:25;;;;;;;;;;;;;;;-140.72;100.00;52547.09;5053595;28;19920;-71
2023/09/17 10:17:51;;;;;;;;;;;;;;;-140.72;100.00;52500.44;5073640;28;19921;-71
2023/09/17 10:20:18;;;;;;;;;;;;;;;-140.72;100.00;52520.72;5063458;28;20014;-71
2023/09/17 10:22:46;;;;;;;;;;;;;;;-140.72;100.00;52490.28;5076493;28;19920;-71
2023/09/17 10:25:14;;;;;;;;;;;;;;;-140.72;100.00;52516.66;5062174;28;20318;-71
2023/09/17 10:27:40;;;;;;;;;;;;;;;-140.72;100.00;52480.16;5087706;28;19921;-71
2023/09/17 10:30:06;;;;;;;;;;;;;;;-140.72;100.00;52504.50;5070980;28;19921;-71
2023/09/17 10:32:32;;;;;;;;;;;;;;;-140.72;100.00;52536.97;5066221;28;20038;-70
2023/09/17 10:34:57;;;;;;;;;;;;;;;-140.72;100.00;52494.34;5062916;28;19930;-70
2023/09/17 10:37:23;;;;;;;;;;;;;;;-140.72;100.00;52504.50;5060612;28;20015;-71
2023/09/17 10:39:49;;;;;;;;;;;;;;;-140.72;100.00;52506.53;5071036;28;20322;-71
2023/09/17 10:42:15;;;;;;;;;;;;;;;-140.72;100.00;52496.38;5074769;28;19965;-71
2023/09/17 10:44:42;;;;;;;;;;;;;;;-140.72;100.00;52496.38;5083414;28;19923;-71
2023/09/17 10:47:09;;;;;;;;;;;;;;;-140.72;100.00;52506.53;5071479;28;19917;-71
2023/09/17 10:49:36;;;;;;;;;;;;;;;-140.72;100.00;52504.50;5073772;28;19927;-71
2023/09/17 10:52:03;;;;;;;;;;;;;;;-140.72;100.00;52504.50;5082645;28;19928;-70
2023/09/17 10:54:29;;;;;;;;;;;;;;;-140.72;100.00;52500.44;5076072;28;19956;-70
2023/09/17 10:56:55;;;;;;;;;;;;;;;-140.72;100.00;52492.31;5067067;28;19966;-70
2023/09/17 10:59:21;;;;;;;;;;;;;;;-140.72;100.00;52526.81;5056810;28;19979;-69
2023/09/17 11:01:48;;;;;;;;;;;;;;;-140.72;100.00;52474.06;5067782;28;19921;-70
2023/09/17 11:04:15;;;;;;;;;;;;;;;-140.72;100.00;52526.81;5063650;28;19921;-70
2023/09/17 11:06:42;;;;;;;;;;;;;;;-140.72;100.00;52492.31;5062954;28;19973;-69
2023/09/17 11:09:07;;;;;;;;;;;;;;;-140.72;100.00;52502.47;5085669;28;19940;-69
2023/09/17 11:11:34;;;;;;;;;;;;;;;-140.72;100.00;52484.19;5073764;28;19921;-69
2023/09/17 11:14:00;;;;;;;;;;;;;;;-140.72;100.00;52476.09;5062655;28;19928;-70
2023/09/17 11:16:30;;;;;;;;;;;;;;;-140.72;100.00;52484.19;5076305;28;19917;-70
2023/09/17 11:19:16;;;;;;;;;;;;;;;-140.72;100.00;52488.25;5072340;28;20222;-70
2023/09/17 11:21:42;;;;;;;;;;;;;;;-140.72;100.00;52447.69;5071491;28;19920;-70
2023/09/17 11:24:10;;;;;;;;;;;;;;;-140.72;100.00;52455.78;5068279;28;20349;-70
2023/09/17 11:26:37;;;;;;;;;;;;;;;-140.72;100.00;52496.38;5067247;28;19916;-70
2023/09/17 11:29:05;;;;;;;;;;;;;;;-140.72;100.00;52494.34;5075046;28;19917;-70
2023/09/17 11:31:32;;;;;;;;;;;;;;;-140.72;100.00;52457.81;5074150;28;19932;-70
2023/09/17 11:33:57;;;;;;;;;;;;;;;-140.72;100.00;52449.72;5066810;28;19966;-70
2023/09/17 11:36:23;;;;;;;;;;;;;;;-140.72;100.00;52472.03;5066944;28;19916;-71
2023/09/17 11:38:50;;;;;;;;;;;;;;;-140.72;100.00;52492.31;5064480;28;19920;-70
2023/09/17 11:41:16;;;;;;;;;;;;;;;-140.72;100.00;52504.50;5084167;28;20007;-70
2023/09/17 11:43:46;;;;;;;;;;;;;;;-140.72;100.00;52461.88;5073999;28;19981;-70
2023/09/17 11:46:13;;;;;;;;;;;;;;;-140.72;100.00;52433.47;5062167;28;19917;-70
2023/09/17 11:48:39;;;;;;;;;;;;;;;-140.72;100.00;52484.19;5073911;28;20341;-70
2023/09/17 11:51:21;;;;;;;;;;;;;;;-140.72;100.00;52488.25;5067688;28;19924;-70
2023/09/17 11:53:49;;;;;;;;;;;;;;;-140.72;100.00;52484.19;5067800;28;19927;-70
2023/09/17 11:56:14;;;;;;;;;;;;;;;-140.72;100.00;52470.00;5079805;28;19962;-70
2023/09/17 11:58:40;;;;;;;;;;;;;;;-140.72;100.00;52492.31;5070406;28;19924;-71
2023/09/17 12:01:07;;;;;;;;;;;;;;;-140.72;100.00;52474.06;5064519;28;20290;-70
2023/09/17 12:03:32;;;;;;;;;;;;;;;-140.72;100.00;52486.22;5071142;28;19989;-70
2023/09/17 12:05:57;;;;;;;;;;;;;;;-140.72;100.00;52443.63;5064708;28;20359;-70
2023/09/17 12:08:23;;;;;;;;;;;;;;;-140.72;100.00;52461.88;5074058;28;19975;-70
2023/09/17 12:10:52;;;;;;;;;;;;;;;-140.72;100.00;52502.47;5059370;28;20027;-70
2023/09/17 12:13:18;;;;;;;;;;;;;;;-140.72;100.00;52524.78;5062084;28;20374;-70